createdAt,value
2022-12-05T00:01:17.738Z,101091.28
2022-12-05T00:04:20.838Z,101092.97
2022-12-05T00:07:25.170Z,101098.19
2022-12-05T00:10:28.224Z,101099.84
2022-12-05T00:13:31.213Z,101083.47
2022-12-05T00:16:36.942Z,101086.03
2022-12-05T00:19:41.189Z,101092.84
2022-12-05T00:22:45.737Z,101089.41
2022-12-05T00:25:48.761Z,101092.91
2022-12-05T00:28:52.617Z,101090.41
2022-12-05T00:31:55.734Z,101092.97
2022-12-05T00:34:59.022Z,101100.69
2022-12-05T00:38:03.393Z,101102.44
2022-12-05T00:41:08.091Z,101097.13
2022-12-05T00:44:12.771Z,101102.28
2022-12-05T00:47:15.752Z,101098.69
2022-12-05T00:50:19.084Z,101092.84
2022-12-05T00:53:23.367Z,101099.72
2022-12-05T00:56:27.919Z,101096.19
2022-12-05T00:59:35.190Z,101093.47
2022-12-05T01:02:39.055Z,101090.97
2022-12-05T01:05:43.814Z,101091.69
2022-12-05T01:08:48.442Z,101090.09
2022-12-05T01:11:52.898Z,101092.72
2022-12-05T01:14:56.390Z,101084.16
2022-12-05T01:17:59.505Z,101088.41
2022-12-05T01:21:06.383Z,101087.56
2022-12-05T01:24:11.455Z,101075.53
2022-12-05T01:27:14.523Z,101084.84
2022-12-05T01:30:17.829Z,101082.34
2022-12-05T01:33:20.800Z,101076.38
2022-12-05T01:36:27.367Z,101078.94
2022-12-05T01:39:31.683Z,101072.06
2022-12-05T01:42:34.914Z,101073.69
2022-12-05T01:45:41.181Z,101071.22
2022-12-05T01:48:44.574Z,101071.09
2022-12-05T01:51:51.469Z,101076.38
2022-12-05T01:54:59.743Z,101075.47
2022-12-05T01:58:04.230Z,101067.75
2022-12-05T02:01:07.356Z,101069.44
2022-12-05T02:04:11.958Z,101067.81
2022-12-05T02:07:15.152Z,101066.91
2022-12-05T02:10:20.486Z,101067.75
2022-12-05T02:13:47.758Z,101074.66
2022-12-05T02:17:03.766Z,101071.31
2022-12-05T02:20:31.639Z,101066.16
2022-12-05T02:23:58.971Z,101066.06
2022-12-05T02:27:22.082Z,101067.75
2022-12-05T02:30:27.900Z,101066.09
2022-12-05T02:33:39.083Z,101063.53
2022-12-05T02:36:49.429Z,101064.38
2022-12-05T02:39:57.968Z,101059.97
2022-12-05T02:43:04.785Z,101064.28
2022-12-05T02:46:14.010Z,101071.25
2022-12-05T02:49:23.935Z,101066.06
2022-12-05T02:52:28.785Z,101066.03
2022-12-05T02:55:33.385Z,101060.81
2022-12-05T02:58:43.169Z,101063.31
2022-12-05T03:01:49.661Z,101053.09
2022-12-05T03:04:53.189Z,101052.41
2022-12-05T03:07:59.572Z,101046.38
2022-12-05T03:11:04.518Z,101046.28
2022-12-05T03:14:14.565Z,101041.97
2022-12-05T03:17:24.086Z,101046.22
2022-12-05T03:20:34.302Z,101045.38
2022-12-05T03:23:46.073Z,101043.72
2022-12-05T03:26:59.311Z,101046.22
2022-12-05T03:30:07.702Z,101050.53
2022-12-05T03:33:15.634Z,101048.84
2022-12-05T03:36:23.844Z,101052.13
2022-12-05T03:39:31.423Z,101058.16
2022-12-05T03:42:37.427Z,101053.09
2022-12-05T03:45:46.210Z,101046.13
2022-12-05T03:48:55.959Z,101053.16
2022-12-05T03:52:09.271Z,101046.34
2022-12-05T03:55:14.010Z,101048.84
2022-12-05T03:58:24.145Z,101047.94
2022-12-05T04:01:30.990Z,101041.06
2022-12-05T04:04:40.450Z,101033.41
2022-12-05T04:07:46.649Z,101040.28
2022-12-05T04:10:52.812Z,101045.50
2022-12-05T04:14:01.054Z,101044.47
2022-12-05T04:17:09.289Z,101047.81
2022-12-05T04:20:35.459Z,101042.56
2022-12-05T04:23:41.401Z,101041.00
2022-12-05T04:26:52.905Z,101038.28
2022-12-05T04:30:04.262Z,101045.16
2022-12-05T04:33:11.930Z,101045.28
2022-12-05T04:36:21.625Z,101043.50
2022-12-05T04:39:32.384Z,101046.97
2022-12-05T04:42:37.733Z,101048.56
2022-12-05T04:45:42.738Z,101046.00
2022-12-05T04:48:54.335Z,101045.19
2022-12-05T04:52:05.406Z,101046.06
2022-12-05T04:55:15.299Z,101040.03
2022-12-05T04:58:23.014Z,101042.59
2022-12-05T05:01:31.953Z,101048.59
2022-12-05T05:04:39.217Z,101050.31
2022-12-05T05:07:49.313Z,101047.88
2022-12-05T05:11:05.641Z,101043.63
2022-12-05T05:14:08.899Z,101049.53
2022-12-05T05:17:11.815Z,101053.72
2022-12-05T05:20:27.277Z,101045.94
2022-12-05T05:23:32.047Z,101046.97
2022-12-05T05:26:38.261Z,101050.22
2022-12-05T05:29:41.336Z,101048.44
2022-12-05T05:32:44.376Z,101048.44
2022-12-05T05:35:47.437Z,101049.41
2022-12-05T05:38:54.203Z,101048.56
2022-12-05T05:41:57.137Z,101051.13
2022-12-05T05:45:00.124Z,101049.25
2022-12-05T05:48:03.111Z,101043.28
2022-12-05T05:51:08.486Z,101050.13
2022-12-05T05:54:13.009Z,101052.03
2022-12-05T05:57:20.389Z,101049.41
2022-12-05T06:00:23.869Z,101049.47
2022-12-05T06:03:27.451Z,101051.91
2022-12-05T06:06:30.541Z,101053.59
2022-12-05T06:09:35.296Z,101055.47
2022-12-05T06:12:38.269Z,101058.72
2022-12-05T06:15:41.385Z,101057.06
2022-12-05T06:18:44.896Z,101052.66
2022-12-05T06:21:50.276Z,101062.13
2022-12-05T06:24:54.677Z,101058.69
2022-12-05T06:27:57.837Z,101056.13
2022-12-05T06:31:00.886Z,101064.63
2022-12-05T06:34:05.213Z,101065.59
2022-12-05T06:37:08.611Z,101070.81
2022-12-05T06:40:14.264Z,101066.44
2022-12-05T06:43:17.238Z,101075.75
2022-12-05T06:46:20.289Z,101069.78
2022-12-05T06:49:31.578Z,101077.53
2022-12-05T06:52:35.769Z,101084.44
2022-12-05T06:55:40.096Z,101083.63
2022-12-05T06:58:43.592Z,101093.06
2022-12-05T07:01:47.111Z,101092.13
2022-12-05T07:04:50.252Z,101091.28
2022-12-05T07:07:53.565Z,101081.84
2022-12-05T07:11:00.779Z,101087.84
2022-12-05T07:14:14.748Z,101094.53
2022-12-05T07:17:22.825Z,101092.88
2022-12-05T07:20:30.252Z,101096.34
2022-12-05T07:23:42.517Z,101102.25
2022-12-05T07:26:46.878Z,101094.44
2022-12-05T07:29:52.156Z,101099.53
2022-12-05T07:32:55.903Z,101108.22
2022-12-05T07:36:02.991Z,101098.97
2022-12-05T07:39:06.299Z,101100.69
2022-12-05T07:42:10.811Z,101094.66
2022-12-05T07:45:13.913Z,101100.69
2022-12-05T07:48:18.743Z,101099.03
2022-12-05T07:51:24.473Z,101099.88
2022-12-05T07:54:27.802Z,101094.66
2022-12-05T07:57:32.716Z,101094.53
2022-12-05T08:00:35.728Z,101100.69
2022-12-05T08:03:39.535Z,101107.47
2022-12-05T08:06:42.576Z,101101.56
2022-12-05T08:09:48.761Z,101101.56
2022-12-05T08:12:54.845Z,101105.03
2022-12-05T08:16:04.384Z,101109.97
2022-12-05T08:19:12.858Z,101109.25
2022-12-05T08:22:15.991Z,101109.25
2022-12-05T08:25:19.039Z,101106.63
2022-12-05T08:28:23.362Z,101110.94
2022-12-05T08:31:29.016Z,101114.41
2022-12-05T08:34:32.339Z,101109.34
2022-12-05T08:37:35.401Z,101106.72
2022-12-05T08:40:38.609Z,101110.28
2022-12-05T08:43:43.498Z,101100.91
2022-12-05T08:46:49.453Z,101103.47
2022-12-05T08:49:54.273Z,101113.66
2022-12-05T08:52:58.441Z,101097.28
2022-12-05T08:56:02.638Z,101108.41
2022-12-05T08:59:07.766Z,101099.81
2022-12-05T09:02:11.899Z,101102.31
2022-12-05T09:05:27.407Z,101108.31
2022-12-05T09:08:34.092Z,101106.78
2022-12-05T09:11:41.466Z,101106.69
2022-12-05T09:14:46.154Z,101099.88
2022-12-05T09:17:49.615Z,101108.41
2022-12-05T09:20:52.689Z,101111.84
2022-12-05T09:23:56.510Z,101102.44
2022-12-05T09:27:00.343Z,101094.66
2022-12-05T09:30:06.360Z,101104.19
2022-12-05T09:33:11.194Z,101104.19
2022-12-05T09:36:17.436Z,101103.28
2022-12-05T09:39:21.320Z,101105.03
2022-12-05T09:42:46.541Z,101092.88
2022-12-05T09:45:59.464Z,101099.88
2022-12-05T09:49:06.907Z,101103.34
2022-12-05T09:52:12.790Z,101097.28
2022-12-05T09:55:19.962Z,101098.06
2022-12-05T09:58:41.044Z,101099.75
2022-12-05T10:01:58.708Z,101096.25
2022-12-05T10:05:10.841Z,101089.41
2022-12-05T10:08:24.678Z,101094.53
2022-12-05T10:11:36.217Z,101089.31
2022-12-05T10:14:52.368Z,101092.56
2022-12-05T10:18:00.936Z,101083.88
2022-12-05T10:21:18.364Z,101083.75
2022-12-05T10:24:30.941Z,101081.28
2022-12-05T10:27:40.569Z,101085.59
2022-12-05T10:30:47.140Z,101085.41
2022-12-05T10:33:59.654Z,101092.31
2022-12-05T10:37:11.550Z,101082.00
2022-12-05T10:40:15.595Z,101075.13
2022-12-05T10:43:27.461Z,101078.38
2022-12-05T10:46:31.201Z,101072.16
2022-12-05T10:49:36.254Z,101072.94
2022-12-05T10:52:39.370Z,101078.28
2022-12-05T10:56:06.487Z,101085.34
2022-12-05T10:59:12.855Z,101080.25
2022-12-05T11:02:24.707Z,101080.06
2022-12-05T11:05:35.351Z,101072.47
2022-12-05T11:12:28.476Z,101070.63
2022-12-05T11:15:33.159Z,101075.66
2022-12-05T11:18:36.567Z,101072.34
2022-12-05T11:21:44.783Z,101071.47
2022-12-05T11:24:50.180Z,101077.41
2022-12-05T11:28:26.574Z,101070.56
2022-12-05T11:31:31.675Z,101067.94
2022-12-05T11:34:42.415Z,101060.06
2022-12-05T11:37:53.567Z,101069.47
2022-12-05T11:41:31.058Z,101069.47
2022-12-05T11:45:00.373Z,101066.72
2022-12-05T11:48:34.724Z,101064.22
2022-12-05T11:51:41.567Z,101057.19
2022-12-05T11:55:08.914Z,101056.28
2022-12-05T11:58:40.635Z,101050.22
2022-12-05T12:01:57.046Z,101045.41
2022-12-05T12:05:12.688Z,101044.31
2022-12-05T12:08:24.559Z,101045.19
2022-12-05T12:11:36.916Z,101041.78
2022-12-05T12:14:52.053Z,101041.75
2022-12-05T12:18:02.484Z,101032.88
2022-12-05T12:21:17.773Z,101034.56
2022-12-05T12:24:29.109Z,101033.66
2022-12-05T12:27:45.939Z,101040.31
2022-12-05T12:31:07.037Z,101045.38
2022-12-05T12:34:34.428Z,101036.25
2022-12-05T12:37:47.075Z,101043.06
2022-12-05T12:40:54.461Z,101038.03
2022-12-05T12:44:22.699Z,101032.88
2022-12-05T12:47:40.289Z,101028.81
2022-12-05T12:50:46.566Z,101031.22
2022-12-05T12:54:12.441Z,101025.94
2022-12-05T12:57:24.204Z,101023.16
2022-12-05T13:00:45.983Z,101011.97
2022-12-05T13:03:56.895Z,101016.31
2022-12-05T13:07:07.783Z,101020.38
2022-12-05T13:10:27.109Z,101018.66
2022-12-05T13:13:38.412Z,101017.72
2022-12-05T13:16:48.989Z,101015.09
2022-12-05T13:19:54.821Z,101012.50
2022-12-05T13:23:03.107Z,101015.22
2022-12-05T13:26:12.222Z,101010.72
2022-12-05T13:29:23.071Z,101020.16
2022-12-05T13:32:31.927Z,101020.97
2022-12-05T13:35:57.390Z,101011.44
2022-12-05T13:39:21.361Z,101011.28
2022-12-05T13:42:27.830Z,101022.53
2022-12-05T13:45:34.639Z,101017.28
2022-12-05T13:48:43.264Z,101017.38
2022-12-05T13:51:50.415Z,101020.84
2022-12-05T13:54:59.924Z,101014.09
2022-12-05T13:58:07.213Z,101007.19
2022-12-05T14:01:55.621Z,101012.28
2022-12-05T14:05:00.893Z,101020.91
2022-12-05T14:08:52.661Z,101016.53
2022-12-05T14:12:47.613Z,101019.06
2022-12-05T14:15:52.178Z,101020.75
2022-12-05T14:19:04.651Z,101023.41
2022-12-05T14:22:41.010Z,101024.09
2022-12-05T14:26:08.550Z,101023.25
2022-12-05T14:29:39.826Z,101018.13
2022-12-05T14:32:44.183Z,101014.53
2022-12-05T14:35:51.720Z,101017.88
2022-12-05T14:38:56.237Z,101022.94
2022-12-05T14:42:00.729Z,101012.50
2022-12-05T14:45:26.376Z,101017.22
2022-12-05T14:48:34.492Z,101016.44
2022-12-05T14:51:57.247Z,101021.66
2022-12-05T14:55:07.229Z,101014.75
2022-12-05T14:58:21.129Z,101014.75
2022-12-05T15:01:27.801Z,101013.94
2022-12-05T15:04:37.534Z,101012.13
2022-12-05T15:07:41.573Z,101009.44
2022-12-05T15:10:52.565Z,101009.31
2022-12-05T15:14:05.037Z,101015.13
2022-12-05T15:17:18.608Z,101015.13
2022-12-05T15:20:40.084Z,101016.13
2022-12-05T15:23:49.576Z,101019.56
2022-12-05T15:26:55.714Z,101026.50
2022-12-05T15:29:58.708Z,101026.50
2022-12-05T15:33:02.785Z,101031.75
2022-12-05T15:36:06.986Z,101033.47
2022-12-05T15:39:23.634Z,101032.50
2022-12-05T15:42:31.589Z,101040.22
2022-12-05T15:45:34.586Z,101044.47
2022-12-05T15:48:39.927Z,101038.50
2022-12-05T15:51:51.403Z,101036.72
2022-12-05T15:54:55.295Z,101045.28
2022-12-05T15:58:12.607Z,101039.31
2022-12-05T16:01:21.176Z,101035.13
2022-12-05T16:04:34.232Z,101036.03
2022-12-05T16:07:37.369Z,101043.03
2022-12-05T16:10:40.526Z,101045.59
2022-12-05T16:13:49.234Z,101042.97
2022-12-05T16:16:59.229Z,101032.66
2022-12-05T16:20:26.332Z,101027.47
2022-12-05T16:23:31.519Z,101030.81
2022-12-05T16:26:40.308Z,101036.81
2022-12-05T16:29:45.882Z,101030.69
2022-12-05T16:32:52.061Z,101030.66
2022-12-05T16:35:55.318Z,101029.75
2022-12-05T16:39:04.180Z,101029.84
2022-12-05T16:42:25.206Z,101022.94
2022-12-05T16:45:42.372Z,101033.09
2022-12-05T16:48:48.602Z,101024.53
2022-12-05T16:52:01.577Z,101022.78
2022-12-05T16:55:04.868Z,101026.03
2022-12-05T16:58:13.091Z,101028.59
2022-12-05T17:01:21.520Z,101019.88
2022-12-05T17:04:24.715Z,101024.28
2022-12-05T17:07:32.491Z,101014.91
2022-12-05T17:10:40.613Z,101020.78
2022-12-05T17:13:45.154Z,101019.13
2022-12-05T17:16:49.552Z,101019.88
2022-12-05T17:19:56.077Z,101024.06
2022-12-05T17:22:59.089Z,101022.22
2022-12-05T17:26:05.308Z,101015.41
2022-12-05T17:29:08.748Z,101017.25
2022-12-05T17:32:14.014Z,101017.19
2022-12-05T17:35:22.001Z,101017.97
2022-12-05T17:38:25.014Z,101020.66
2022-12-05T17:41:28.090Z,101021.44
2022-12-05T17:44:36.340Z,101020.38
2022-12-05T17:47:40.887Z,101012.47
2022-12-05T17:50:50.501Z,101014.16
2022-12-05T17:53:57.041Z,101015.75
2022-12-05T17:57:00.128Z,101014.16
2022-12-05T18:00:04.892Z,101018.47
2022-12-05T18:03:17.842Z,101023.63
2022-12-05T18:06:22.451Z,101023.66
2022-12-05T18:09:25.516Z,101020.31
2022-12-05T18:12:28.729Z,101012.41
2022-12-05T18:15:40.919Z,101016.56
2022-12-05T18:18:47.249Z,101010.59
2022-12-05T18:21:50.975Z,101011.50
2022-12-05T18:24:55.392Z,101014.81
2022-12-05T18:27:59.097Z,101013.06
2022-12-05T18:31:16.871Z,101007.97
2022-12-05T18:34:21.395Z,101007.75
2022-12-05T18:37:24.516Z,101011.03
2022-12-05T18:40:28.139Z,101011.84
2022-12-05T18:43:32.195Z,101014.50
2022-12-05T18:46:37.919Z,101023.06
2022-12-05T18:49:45.405Z,101014.44
2022-12-05T18:52:51.040Z,101016.16
2022-12-05T18:59:20.207Z,101025.66
2022-12-05T19:02:24.513Z,101029.06
2022-12-05T19:05:34.260Z,101016.84
2022-12-05T19:08:37.810Z,101017.56
2022-12-05T19:11:47.186Z,101019.34
2022-12-05T19:14:58.054Z,101017.50
2022-12-05T19:18:03.392Z,101016.75
2022-12-05T19:21:08.269Z,101026.31
2022-12-05T19:24:16.916Z,101034.94
2022-12-05T19:27:24.258Z,101034.19
2022-12-05T19:30:27.189Z,101029.91
2022-12-05T19:33:34.683Z,101023.06
2022-12-05T19:36:42.598Z,101029.91
2022-12-05T19:39:46.145Z,101019.47
2022-12-05T19:42:49.749Z,101025.47
2022-12-05T19:45:52.854Z,101025.31
2022-12-05T19:48:57.417Z,101027.88
2022-12-05T19:52:02.213Z,101029.91
2022-12-05T19:55:06.006Z,101033.22
2022-12-05T19:58:09.118Z,101035.63
2022-12-05T20:01:14.996Z,101030.56
2022-12-05T20:04:18.292Z,101036.53
2022-12-05T20:07:26.766Z,101034.72
2022-12-05T20:10:29.999Z,101039.75
2022-12-05T20:13:48.998Z,101039.75
2022-12-05T20:16:52.824Z,101037.47
2022-12-05T20:19:56.220Z,101038.69
2022-12-05T20:23:01.137Z,101038.72
2022-12-05T20:26:09.854Z,101037.69
2022-12-05T20:29:16.391Z,101036.09
2022-12-05T20:32:19.417Z,101034.34
2022-12-05T20:35:24.384Z,101045.59
2022-12-05T20:38:33.919Z,101039.91
2022-12-05T20:41:37.042Z,101033.88
2022-12-05T20:44:40.055Z,101033.97
2022-12-05T20:47:43.236Z,101038.25
2022-12-05T20:50:46.697Z,101035.00
2022-12-05T20:53:51.836Z,101036.09
2022-12-05T20:56:54.812Z,101041.34
2022-12-05T20:59:58.341Z,101035.81
2022-12-05T21:03:01.682Z,101031.75
2022-12-05T21:06:09.041Z,101032.50
2022-12-05T21:09:19.687Z,101030.09
2022-12-05T21:12:22.755Z,101030.09
2022-12-05T21:15:25.811Z,101028.41
2022-12-05T21:18:30.581Z,101025.06
2022-12-05T21:21:34.525Z,101032.00
2022-12-05T21:24:38.932Z,101039.16
2022-12-05T21:27:41.965Z,101037.44
2022-12-05T21:30:45.129Z,101033.03
2022-12-05T21:33:50.792Z,101028.53
2022-12-05T21:36:53.796Z,101030.31
2022-12-05T21:39:58.371Z,101024.63
2022-12-05T21:43:01.604Z,101032.34
2022-12-05T21:46:05.570Z,101031.38
2022-12-05T21:49:08.838Z,101034.03
2022-12-05T21:52:11.865Z,101033.25
2022-12-05T21:55:16.302Z,101024.66
2022-12-05T21:58:20.178Z,101028.88
2022-12-05T22:01:26.426Z,101036.59
2022-12-05T22:04:29.486Z,101034.63
2022-12-05T22:07:33.041Z,101034.63
2022-12-05T22:10:37.434Z,101037.28
2022-12-05T22:13:42.955Z,101038.94
2022-12-05T22:16:46.016Z,101037.34
2022-12-05T22:19:57.444Z,101032.13
2022-12-05T22:23:00.935Z,101033.78
2022-12-05T22:26:07.872Z,101023.41
2022-12-05T22:29:11.242Z,101025.91
2022-12-05T22:32:14.392Z,101025.53
2022-12-05T22:35:17.738Z,101022.16
2022-12-05T22:38:20.953Z,101015.53
2022-12-05T22:41:27.821Z,101013.97
2022-12-05T22:44:31.005Z,101014.19
2022-12-05T22:47:34.092Z,101009.03
2022-12-05T22:50:37.249Z,101006.31
2022-12-05T22:53:40.801Z,101004.41
2022-12-05T22:56:45.477Z,100993.28
2022-12-05T22:59:48.835Z,100991.69
2022-12-05T23:02:53.663Z,100982.22
2022-12-05T23:05:57.191Z,100985.66
2022-12-05T23:09:02.558Z,100982.22
2022-12-05T23:12:08.123Z,100981.84
2022-12-05T23:15:13.257Z,100984.19
2022-12-05T23:18:16.762Z,100986.09
2022-12-05T23:21:28.011Z,100983.75
2022-12-05T23:24:31.932Z,100980.28
2022-12-05T23:27:37.547Z,100973.22
2022-12-05T23:30:40.540Z,100979.16
2022-12-05T23:33:43.749Z,100971.31
2022-12-05T23:36:48.806Z,100969.53
2022-12-05T23:39:51.896Z,100966.28
2022-12-05T23:42:56.234Z,100968.31
2022-12-05T23:45:59.644Z,100960.47
2022-12-05T23:49:10.071Z,100954.53
2022-12-05T23:52:21.126Z,100955.47
2022-12-05T23:55:24.428Z,100953.75
2022-12-05T23:58:30.244Z,100966.22
